sensor_id;sensor_type;location;lat;lon;timestamp;P1;durP1;ratioP1;P2;durP2;ratioP2
16294;SDS011;8255;49.560;8.244;2022-09-02T00:00:50;5.13;;;3.70;;
16294;SDS011;8255;49.560;8.244;2022-09-02T00:03:17;4.07;;;3.75;;
16294;SDS011;8255;49.560;8.244;2022-09-02T00:05:43;3.20;;;3.10;;
16294;SDS011;8255;49.560;8.244;2022-09-02T00:08:11;3.58;;;3.40;;
16294;SDS011;8255;49.560;8.244;2022-09-02T00:10:39;3.30;;;3.00;;
16294;SDS011;8255;49.560;8.244;2022-09-02T00:13:06;3.42;;;3.28;;
16294;SDS011;8255;49.560;8.244;2022-09-02T00:15:33;4.20;;;3.53;;
16294;SDS011;8255;49.560;8.244;2022-09-02T00:17:59;3.60;;;3.40;;
16294;SDS011;8255;49.560;8.244;2022-09-02T00:20:26;3.60;;;3.40;;
16294;SDS011;8255;49.560;8.244;2022-09-02T00:22:52;3.80;;;3.50;;
16294;SDS011;8255;49.560;8.244;2022-09-02T00:25:20;3.83;;;3.60;;
16294;SDS011;8255;49.560;8.244;2022-09-02T00:27:47;4.05;;;3.67;;
16294;SDS011;8255;49.560;8.244;2022-09-02T00:30:13;3.83;;;3.60;;
16294;SDS011;8255;49.560;8.244;2022-09-02T00:32:40;3.50;;;3.30;;
16294;SDS011;8255;49.560;8.244;2022-09-02T00:35:07;3.72;;;3.53;;
16294;SDS011;8255;49.560;8.244;2022-09-02T00:37:34;3.75;;;3.28;;
16294;SDS011;8255;49.560;8.244;2022-09-02T00:40:00;3.60;;;3.40;;
16294;SDS011;8255;49.560;8.244;2022-09-02T00:42:28;4.15;;;3.88;;
16294;SDS011;8255;49.560;8.244;2022-09-02T00:44:55;7.78;;;3.40;;
16294;SDS011;8255;49.560;8.244;2022-09-02T00:47:21;3.80;;;3.50;;
16294;SDS011;8255;49.560;8.244;2022-09-02T00:49:48;3.60;;;3.40;;
16294;SDS011;8255;49.560;8.244;2022-09-02T00:52:16;3.63;;;3.33;;
16294;SDS011;8255;49.560;8.244;2022-09-02T00:54:46;4.28;;;3.65;;
16294;SDS011;8255;49.560;8.244;2022-09-02T00:57:14;3.88;;;3.40;;
16294;SDS011;8255;49.560;8.244;2022-09-02T00:59:47;3.63;;;3.42;;
16294;SDS011;8255;49.560;8.244;2022-09-02T01:02:16;4.80;;;3.50;;
16294;SDS011;8255;49.560;8.244;2022-09-02T01:04:42;3.83;;;3.63;;
16294;SDS011;8255;49.560;8.244;2022-09-02T01:07:10;3.50;;;3.30;;
16294;SDS011;8255;49.560;8.244;2022-09-02T01:09:37;3.83;;;3.63;;
16294;SDS011;8255;49.560;8.244;2022-09-02T01:12:04;3.60;;;3.40;;
16294;SDS011;8255;49.560;8.244;2022-09-02T01:14:31;3.85;;;3.55;;
16294;SDS011;8255;49.560;8.244;2022-09-02T01:17:00;3.50;;;3.30;;
16294;SDS011;8255;49.560;8.244;2022-09-02T01:19:28;3.60;;;3.40;;
16294;SDS011;8255;49.560;8.244;2022-09-02T01:21:57;4.15;;;3.85;;
16294;SDS011;8255;49.560;8.244;2022-09-02T01:24:25;3.83;;;3.60;;
16294;SDS011;8255;49.560;8.244;2022-09-02T01:26:53;3.80;;;3.60;;
16294;SDS011;8255;49.560;8.244;2022-09-02T01:29:20;3.65;;;3.45;;
16294;SDS011;8255;49.560;8.244;2022-09-02T01:31:48;3.33;;;3.13;;
16294;SDS011;8255;49.560;8.244;2022-09-02T01:34:14;3.47;;;3.33;;
16294;SDS011;8255;49.560;8.244;2022-09-02T01:36:41;3.47;;;3.28;;
16294;SDS011;8255;49.560;8.244;2022-09-02T01:39:10;3.50;;;3.30;;
16294;SDS011;8255;49.560;8.244;2022-09-02T01:41:37;3.33;;;3.13;;
16294;SDS011;8255;49.560;8.244;2022-09-02T01:44:03;3.50;;;3.20;;
16294;SDS011;8255;49.560;8.244;2022-09-02T01:46:30;3.35;;;3.15;;
16294;SDS011;8255;49.560;8.244;2022-09-02T01:48:56;3.42;;;3.13;;
16294;SDS011;8255;49.560;8.244;2022-09-02T01:51:25;3.40;;;3.20;;
16294;SDS011;8255;49.560;8.244;2022-09-02T01:53:53;4.13;;;3.40;;
16294;SDS011;8255;49.560;8.244;2022-09-02T01:56:21;4.53;;;3.40;;
16294;SDS011;8255;49.560;8.244;2022-09-02T01:58:50;3.40;;;3.20;;
16294;SDS011;8255;49.560;8.244;2022-09-02T02:01:16;2.83;;;2.72;;
16294;SDS011;8255;49.560;8.244;2022-09-02T02:03:44;4.30;;;2.80;;
16294;SDS011;8255;49.560;8.244;2022-09-02T02:06:11;4.43;;;2.90;;
16294;SDS011;8255;49.560;8.244;2022-09-02T02:08:40;3.53;;;2.67;;
16294;SDS011;8255;49.560;8.244;2022-09-02T02:11:07;2.83;;;2.72;;
16294;SDS011;8255;49.560;8.244;2022-09-02T02:13:36;2.78;;;2.65;;
16294;SDS011;8255;49.560;8.244;2022-09-02T02:16:03;3.35;;;2.80;;
16294;SDS011;8255;49.560;8.244;2022-09-02T02:18:30;2.85;;;2.65;;
16294;SDS011;8255;49.560;8.244;2022-09-02T02:20:57;2.88;;;2.78;;
16294;SDS011;8255;49.560;8.244;2022-09-02T02:23:24;2.97;;;2.88;;
16294;SDS011;8255;49.560;8.244;2022-09-02T02:25:50;3.00;;;2.80;;
16294;SDS011;8255;49.560;8.244;2022-09-02T02:28:16;2.75;;;2.55;;
16294;SDS011;8255;49.560;8.244;2022-09-02T02:30:44;4.05;;;3.33;;
16294;SDS011;8255;49.560;8.244;2022-09-02T02:33:11;4.88;;;2.90;;
16294;SDS011;8255;49.560;8.244;2022-09-02T02:35:37;3.90;;;2.63;;
16294;SDS011;8255;49.560;8.244;2022-09-02T02:38:04;2.53;;;2.42;;
16294;SDS011;8255;49.560;8.244;2022-09-02T02:40:31;3.00;;;2.80;;
16294;SDS011;8255;49.560;8.244;2022-09-02T02:42:58;2.85;;;2.63;;
16294;SDS011;8255;49.560;8.244;2022-09-02T02:45:25;3.03;;;2.83;;
16294;SDS011;8255;49.560;8.244;2022-09-02T02:47:52;3.00;;;2.90;;
16294;SDS011;8255;49.560;8.244;2022-09-02T02:50:22;3.03;;;2.72;;
16294;SDS011;8255;49.560;8.244;2022-09-02T02:52:49;3.20;;;2.90;;
16294;SDS011;8255;49.560;8.244;2022-09-02T02:55:18;2.88;;;2.67;;
16294;SDS011;8255;49.560;8.244;2022-09-02T02:57:44;2.80;;;2.60;;
16294;SDS011;8255;49.560;8.244;2022-09-02T03:00:12;3.60;;;2.60;;
16294;SDS011;8255;49.560;8.244;2022-09-02T03:02:39;3.05;;;2.85;;
16294;SDS011;8255;49.560;8.244;2022-09-02T03:05:08;2.92;;;2.72;;
16294;SDS011;8255;49.560;8.244;2022-09-02T03:07:35;3.45;;;3.08;;
16294;SDS011;8255;49.560;8.244;2022-09-02T03:10:02;2.88;;;2.78;;
16294;SDS011;8255;49.560;8.244;2022-09-02T03:12:31;3.30;;;3.10;;
16294;SDS011;8255;49.560;8.244;2022-09-02T03:14:57;3.08;;;2.88;;
16294;SDS011;8255;49.560;8.244;2022-09-02T03:17:25;3.08;;;2.97;;
16294;SDS011;8255;49.560;8.244;2022-09-02T03:19:53;5.03;;;3.22;;
16294;SDS011;8255;49.560;8.244;2022-09-02T03:22:24;3.30;;;3.20;;
16294;SDS011;8255;49.560;8.244;2022-09-02T03:24:50;3.30;;;3.00;;
16294;SDS011;8255;49.560;8.244;2022-09-02T03:27:17;3.22;;;3.00;;
16294;SDS011;8255;49.560;8.244;2022-09-02T03:29:43;3.30;;;3.15;;
16294;SDS011;8255;49.560;8.244;2022-09-02T03:32:10;3.45;;;3.25;;
16294;SDS011;8255;49.560;8.244;2022-09-02T03:34:37;3.33;;;3.13;;
16294;SDS011;8255;49.560;8.244;2022-09-02T03:37:03;3.53;;;3.33;;
16294;SDS011;8255;49.560;8.244;2022-09-02T03:39:32;3.50;;;3.30;;
16294;SDS011;8255;49.560;8.244;2022-09-02T03:41:59;3.72;;;3.53;;
16294;SDS011;8255;49.560;8.244;2022-09-02T03:44:28;3.30;;;3.20;;
16294;SDS011;8255;49.560;8.244;2022-09-02T03:46:55;3.90;;;3.70;;
16294;SDS011;8255;49.560;8.244;2022-09-02T03:49:21;3.80;;;3.60;;
16294;SDS011;8255;49.560;8.244;2022-09-02T03:51:47;4.32;;;3.80;;
16294;SDS011;8255;49.560;8.244;2022-09-02T03:54:14;4.38;;;4.07;;
16294;SDS011;8255;49.560;8.244;2022-09-02T03:56:42;4.00;;;3.70;;
16294;SDS011;8255;49.560;8.244;2022-09-02T03:59:09;4.07;;;3.78;;
16294;SDS011;8255;49.560;8.244;2022-09-02T04:01:35;4.63;;;4.22;;
16294;SDS011;8255;49.560;8.244;2022-09-02T04:04:02;4.00;;;3.60;;
16294;SDS011;8255;49.560;8.244;2022-09-02T04:06:29;4.25;;;3.97;;
16294;SDS011;8255;49.560;8.244;2022-09-02T04:08:56;4.50;;;4.20;;
16294;SDS011;8255;49.560;8.244;2022-09-02T04:11:22;4.40;;;4.00;;
16294;SDS011;8255;49.560;8.244;2022-09-02T04:13:52;4.68;;;4.28;;
16294;SDS011;8255;49.560;8.244;2022-09-02T04:16:23;4.75;;;4.45;;
16294;SDS011;8255;49.560;8.244;2022-09-02T04:18:55;5.00;;;4.50;;
16294;SDS011;8255;49.560;8.244;2022-09-02T04:21:22;4.40;;;4.10;;
16294;SDS011;8255;49.560;8.244;2022-09-02T04:23:49;4.55;;;4.25;;
16294;SDS011;8255;49.560;8.244;2022-09-02T04:26:17;4.63;;;4.25;;
16294;SDS011;8255;49.560;8.244;2022-09-02T04:28:48;4.25;;;3.95;;
16294;SDS011;8255;49.560;8.244;2022-09-02T04:31:18;4.63;;;4.28;;
16294;SDS011;8255;49.560;8.244;2022-09-02T04:33:45;4.40;;;4.10;;
16294;SDS011;8255;49.560;8.244;2022-09-02T04:36:15;4.50;;;4.10;;
16294;SDS011;8255;49.560;8.244;2022-09-02T04:38:43;5.32;;;4.82;;
16294;SDS011;8255;49.560;8.244;2022-09-02T04:41:11;6.00;;;4.60;;
16294;SDS011;8255;49.560;8.244;2022-09-02T04:43:39;6.32;;;4.72;;
16294;SDS011;8255;49.560;8.244;2022-09-02T04:46:07;5.88;;;5.18;;
16294;SDS011;8255;49.560;8.244;2022-09-02T04:48:35;5.25;;;4.78;;
16294;SDS011;8255;49.560;8.244;2022-09-02T04:51:03;6.78;;;5.03;;
16294;SDS011;8255;49.560;8.244;2022-09-02T04:53:30;5.90;;;5.40;;
16294;SDS011;8255;49.560;8.244;2022-09-02T04:55:57;5.13;;;4.63;;
16294;SDS011;8255;49.560;8.244;2022-09-02T04:58:24;4.75;;;4.38;;
16294;SDS011;8255;49.560;8.244;2022-09-02T05:00:53;5.28;;;4.25;;
16294;SDS011;8255;49.560;8.244;2022-09-02T05:03:21;5.47;;;4.97;;
16294;SDS011;8255;49.560;8.244;2022-09-02T05:05:58;5.15;;;4.72;;
16294;SDS011;8255;49.560;8.244;2022-09-02T05:08:25;5.25;;;4.60;;
16294;SDS011;8255;49.560;8.244;2022-09-02T05:10:53;4.93;;;4.53;;
16294;SDS011;8255;49.560;8.244;2022-09-02T05:13:20;5.03;;;4.70;;
16294;SDS011;8255;49.560;8.244;2022-09-02T05:15:48;5.03;;;4.63;;
16294;SDS011;8255;49.560;8.244;2022-09-02T05:18:15;4.68;;;4.30;;
16294;SDS011;8255;49.560;8.244;2022-09-02T05:20:42;6.18;;;4.35;;
16294;SDS011;8255;49.560;8.244;2022-09-02T05:23:11;5.95;;;5.45;;
16294;SDS011;8255;49.560;8.244;2022-09-02T05:25:40;5.88;;;4.47;;
16294;SDS011;8255;49.560;8.244;2022-09-02T05:28:07;5.03;;;4.63;;
16294;SDS011;8255;49.560;8.244;2022-09-02T05:30:34;5.13;;;4.05;;
16294;SDS011;8255;49.560;8.244;2022-09-02T05:33:02;4.60;;;4.20;;
16294;SDS011;8255;49.560;8.244;2022-09-02T05:35:30;6.20;;;4.00;;
16294;SDS011;8255;49.560;8.244;2022-09-02T05:37:57;5.72;;;3.90;;
16294;SDS011;8255;49.560;8.244;2022-09-02T05:40:26;3.88;;;3.65;;
16294;SDS011;8255;49.560;8.244;2022-09-02T05:42:52;4.22;;;3.83;;
16294;SDS011;8255;49.560;8.244;2022-09-02T05:45:19;3.97;;;3.60;;
16294;SDS011;8255;49.560;8.244;2022-09-02T05:47:48;4.72;;;3.50;;
16294;SDS011;8255;49.560;8.244;2022-09-02T05:50:14;3.63;;;3.33;;
16294;SDS011;8255;49.560;8.244;2022-09-02T05:52:43;3.42;;;3.22;;
16294;SDS011;8255;49.560;8.244;2022-09-02T05:55:09;4.13;;;3.45;;
16294;SDS011;8255;49.560;8.244;2022-09-02T05:57:39;3.40;;;3.20;;
16294;SDS011;8255;49.560;8.244;2022-09-02T06:00:07;6.05;;;3.30;;
16294;SDS011;8255;49.560;8.244;2022-09-02T06:02:40;3.72;;;3.30;;
16294;SDS011;8255;49.560;8.244;2022-09-02T06:05:09;2.88;;;2.72;;
16294;SDS011;8255;49.560;8.244;2022-09-02T06:07:40;4.55;;;3.20;;
16294;SDS011;8255;49.560;8.244;2022-09-02T06:10:07;3.55;;;3.35;;
16294;SDS011;8255;49.560;8.244;2022-09-02T06:12:34;3.60;;;3.10;;
16294;SDS011;8255;49.560;8.244;2022-09-02T06:15:02;3.03;;;2.83;;
16294;SDS011;8255;49.560;8.244;2022-09-02T06:17:29;2.95;;;2.72;;
16294;SDS011;8255;49.560;8.244;2022-09-02T06:19:55;2.80;;;2.70;;
16294;SDS011;8255;49.560;8.244;2022-09-02T06:22:24;3.35;;;2.95;;
16294;SDS011;8255;49.560;8.244;2022-09-02T06:24:53;3.60;;;2.75;;
16294;SDS011;8255;49.560;8.244;2022-09-02T06:27:23;2.42;;;2.28;;
16294;SDS011;8255;49.560;8.244;2022-09-02T06:29:52;3.60;;;2.63;;
16294;SDS011;8255;49.560;8.244;2022-09-02T06:32:23;2.75;;;2.55;;
16294;SDS011;8255;49.560;8.244;2022-09-02T06:34:55;2.83;;;2.60;;
16294;SDS011;8255;49.560;8.244;2022-09-02T06:37:24;2.80;;;2.70;;
16294;SDS011;8255;49.560;8.244;2022-09-02T06:39:51;3.47;;;2.72;;
16294;SDS011;8255;49.560;8.244;2022-09-02T06:42:21;2.47;;;2.30;;
16294;SDS011;8255;49.560;8.244;2022-09-02T06:45:06;2.50;;;2.40;;
16294;SDS011;8255;49.560;8.244;2022-09-02T06:47:36;2.88;;;2.30;;
16294;SDS011;8255;49.560;8.244;2022-09-02T06:50:02;2.40;;;2.20;;
16294;SDS011;8255;49.560;8.244;2022-09-02T06:52:29;2.55;;;2.10;;
16294;SDS011;8255;49.560;8.244;2022-09-02T06:54:56;2.25;;;2.13;;
16294;SDS011;8255;49.560;8.244;2022-09-02T06:57:23;2.03;;;1.92;;
16294;SDS011;8255;49.560;8.244;2022-09-02T06:59:50;2.55;;;2.35;;
16294;SDS011;8255;49.560;8.244;2022-09-02T07:02:18;2.60;;;2.40;;
16294;SDS011;8255;49.560;8.244;2022-09-02T07:04:47;4.95;;;2.20;;
16294;SDS011;8255;49.560;8.244;2022-09-02T07:07:33;4.07;;;2.35;;
16294;SDS011;8255;49.560;8.244;2022-09-02T07:10:04;2.47;;;2.00;;
16294;SDS011;8255;49.560;8.244;2022-09-02T07:12:32;2.78;;;2.58;;
16294;SDS011;8255;49.560;8.244;2022-09-02T07:15:04;2.53;;;1.92;;
16294;SDS011;8255;49.560;8.244;2022-09-02T07:17:37;2.40;;;2.20;;
16294;SDS011;8255;49.560;8.244;2022-09-02T07:20:09;2.65;;;2.55;;
16294;SDS011;8255;49.560;8.244;2022-09-02T07:22:50;4.68;;;2.25;;
16294;SDS011;8255;49.560;8.244;2022-09-02T07:25:18;2.90;;;2.40;;
16294;SDS011;8255;49.560;8.244;2022-09-02T07:27:47;2.67;;;2.47;;
16294;SDS011;8255;49.560;8.244;2022-09-02T07:30:15;3.25;;;2.60;;
16294;SDS011;8255;49.560;8.244;2022-09-02T07:32:44;2.50;;;2.30;;
16294;SDS011;8255;49.560;8.244;2022-09-02T07:35:12;3.50;;;2.78;;
16294;SDS011;8255;49.560;8.244;2022-09-02T07:37:39;2.42;;;2.33;;
16294;SDS011;8255;49.560;8.244;2022-09-02T07:40:07;2.45;;;2.30;;
16294;SDS011;8255;49.560;8.244;2022-09-02T07:42:35;2.67;;;2.17;;
16294;SDS011;8255;49.560;8.244;2022-09-02T07:45:02;2.20;;;2.00;;
16294;SDS011;8255;49.560;8.244;2022-09-02T07:47:30;1.95;;;1.77;;
16294;SDS011;8255;49.560;8.244;2022-09-02T07:49:57;2.33;;;2.22;;
16294;SDS011;8255;49.560;8.244;2022-09-02T07:52:25;1.80;;;1.70;;
16294;SDS011;8255;49.560;8.244;2022-09-02T07:54:52;1.90;;;1.80;;
16294;SDS011;8255;49.560;8.244;2022-09-02T07:57:19;2.67;;;2.00;;
16294;SDS011;8255;49.560;8.244;2022-09-02T07:59:45;2.17;;;2.08;;
16294;SDS011;8255;49.560;8.244;2022-09-02T08:02:13;2.30;;;2.03;;
16294;SDS011;8255;49.560;8.244;2022-09-02T08:04:42;1.88;;;1.80;;
16294;SDS011;8255;49.560;8.244;2022-09-02T08:07:09;2.15;;;1.90;;
16294;SDS011;8255;49.560;8.244;2022-09-02T08:09:37;5.07;;;2.08;;
16294;SDS011;8255;49.560;8.244;2022-09-02T08:12:03;3.78;;;2.10;;
16294;SDS011;8255;49.560;8.244;2022-09-02T08:14:31;2.30;;;2.20;;
16294;SDS011;8255;49.560;8.244;2022-09-02T08:16:57;2.75;;;2.50;;
16294;SDS011;8255;49.560;8.244;2022-09-02T08:19:23;1.98;;;1.88;;
16294;SDS011;8255;49.560;8.244;2022-09-02T08:21:51;2.60;;;2.42;;
16294;SDS011;8255;49.560;8.244;2022-09-02T08:24:17;3.03;;;2.70;;
16294;SDS011;8255;49.560;8.244;2022-09-02T08:26:45;3.47;;;2.88;;
16294;SDS011;8255;49.560;8.244;2022-09-02T08:29:11;2.50;;;2.35;;
16294;SDS011;8255;49.560;8.244;2022-09-02T08:31:38;2.25;;;2.13;;
16294;SDS011;8255;49.560;8.244;2022-09-02T08:34:04;2.83;;;2.30;;
16294;SDS011;8255;49.560;8.244;2022-09-02T08:36:31;2.60;;;2.50;;
16294;SDS011;8255;49.560;8.244;2022-09-02T08:38:57;2.40;;;2.30;;
16294;SDS011;8255;49.560;8.244;2022-09-02T08:41:25;2.40;;;2.20;;
16294;SDS011;8255;49.560;8.244;2022-09-02T08:43:54;2.28;;;2.08;;
16294;SDS011;8255;49.560;8.244;2022-09-02T08:46:22;2.05;;;1.90;;
16294;SDS011;8255;49.560;8.244;2022-09-02T08:48:51;2.10;;;2.00;;
16294;SDS011;8255;49.560;8.244;2022-09-02T08:51:19;2.38;;;2.20;;
16294;SDS011;8255;49.560;8.244;2022-09-02T08:53:48;2.20;;;2.10;;
16294;SDS011;8255;49.560;8.244;2022-09-02T08:56:16;2.10;;;2.00;;
16294;SDS011;8255;49.560;8.244;2022-09-02T08:58:43;2.38;;;2.20;;
16294;SDS011;8255;49.560;8.244;2022-09-02T09:01:14;3.45;;;1.90;;
16294;SDS011;8255;49.560;8.244;2022-09-02T09:03:47;3.35;;;2.33;;
16294;SDS011;8255;49.560;8.244;2022-09-02T09:06:18;2.60;;;2.25;;
16294;SDS011;8255;49.560;8.244;2022-09-02T09:08:49;1.90;;;1.80;;
16294;SDS011;8255;49.560;8.244;2022-09-02T09:11:19;3.45;;;1.80;;
16294;SDS011;8255;49.560;8.244;2022-09-02T09:13:51;2.08;;;1.83;;
16294;SDS011;8255;49.560;8.244;2022-09-02T09:16:24;2.10;;;2.00;;
16294;SDS011;8255;49.560;8.244;2022-09-02T09:18:54;2.30;;;2.17;;
16294;SDS011;8255;49.560;8.244;2022-09-02T09:21:22;2.72;;;1.77;;
16294;SDS011;8255;49.560;8.244;2022-09-02T09:23:49;3.13;;;1.65;;
16294;SDS011;8255;49.560;8.244;2022-09-02T09:26:19;1.92;;;1.58;;
16294;SDS011;8255;49.560;8.244;2022-09-02T09:28:48;1.58;;;1.48;;
16294;SDS011;8255;49.560;8.244;2022-09-02T09:31:15;1.70;;;1.60;;
16294;SDS011;8255;49.560;8.244;2022-09-02T09:33:55;1.80;;;1.70;;
16294;SDS011;8255;49.560;8.244;2022-09-02T09:36:27;1.90;;;1.40;;
16294;SDS011;8255;49.560;8.244;2022-09-02T09:39:15;1.83;;;1.63;;
16294;SDS011;8255;49.560;8.244;2022-09-02T09:41:42;1.85;;;1.75;;
16294;SDS011;8255;49.560;8.244;2022-09-02T09:44:09;2.70;;;2.10;;
16294;SDS011;8255;49.560;8.244;2022-09-02T09:46:36;2.03;;;1.92;;
16294;SDS011;8255;49.560;8.244;2022-09-02T09:49:03;1.58;;;1.45;;
16294;SDS011;8255;49.560;8.244;2022-09-02T09:51:30;1.80;;;1.75;;
16294;SDS011;8255;49.560;8.244;2022-09-02T09:54:12;1.60;;;1.60;;
16294;SDS011;8255;49.560;8.244;2022-09-02T09:56:39;5.28;;;1.95;;
16294;SDS011;8255;49.560;8.244;2022-09-02T09:59:06;1.50;;;1.40;;
16294;SDS011;8255;49.560;8.244;2022-09-02T10:01:34;1.77;;;1.67;;
16294;SDS011;8255;49.560;8.244;2022-09-02T10:04:01;1.60;;;1.50;;
16294;SDS011;8255;49.560;8.244;2022-09-02T10:06:37;1.30;;;1.30;;
16294;SDS011;8255;49.560;8.244;2022-09-02T10:09:05;1.50;;;1.40;;
16294;SDS011;8255;49.560;8.244;2022-09-02T10:11:32;1.50;;;1.40;;
16294;SDS011;8255;49.560;8.244;2022-09-02T10:14:00;1.30;;;1.30;;
16294;SDS011;8255;49.560;8.244;2022-09-02T10:16:34;1.25;;;1.23;;
16294;SDS011;8255;49.560;8.244;2022-09-02T10:19:04;1.27;;;1.27;;
16294;SDS011;8255;49.560;8.244;2022-09-02T10:21:39;2.05;;;1.30;;
16294;SDS011;8255;49.560;8.244;2022-09-02T10:24:12;1.17;;;1.17;;
16294;SDS011;8255;49.560;8.244;2022-09-02T10:26:41;1.40;;;1.30;;
16294;SDS011;8255;49.560;8.244;2022-09-02T10:31:50;2.60;;;1.17;;
16294;SDS011;8255;49.560;8.244;2022-09-02T10:34:22;1.20;;;1.20;;
16294;SDS011;8255;49.560;8.244;2022-09-02T10:37:05;2.92;;;1.10;;
16294;SDS011;8255;49.560;8.244;2022-09-02T10:39:36;1.10;;;1.10;;
16294;SDS011;8255;49.560;8.244;2022-09-02T10:42:07;1.10;;;1.10;;
16294;SDS011;8255;49.560;8.244;2022-09-02T10:44:37;1.75;;;1.42;;
16294;SDS011;8255;49.560;8.244;2022-09-02T10:47:14;1.27;;;1.27;;
16294;SDS011;8255;49.560;8.244;2022-09-02T10:49:46;1.33;;;1.20;;
16294;SDS011;8255;49.560;8.244;2022-09-02T10:52:25;2.42;;;1.52;;
16294;SDS011;8255;49.560;8.244;2022-09-02T10:54:54;2.63;;;1.40;;
16294;SDS011;8255;49.560;8.244;2022-09-02T10:57:25;1.10;;;1.10;;
16294;SDS011;8255;49.560;8.244;2022-09-02T10:59:56;1.70;;;1.20;;
16294;SDS011;8255;49.560;8.244;2022-09-02T11:02:25;1.48;;;1.38;;
16294;SDS011;8255;49.560;8.244;2022-09-02T11:04:54;1.10;;;1.10;;
16294;SDS011;8255;49.560;8.244;2022-09-02T11:07:26;1.20;;;1.20;;
16294;SDS011;8255;49.560;8.244;2022-09-02T11:09:54;1.30;;;1.20;;
16294;SDS011;8255;49.560;8.244;2022-09-02T11:12:23;1.08;;;1.08;;
16294;SDS011;8255;49.560;8.244;2022-09-02T11:14:54;1.05;;;1.05;;
16294;SDS011;8255;49.560;8.244;2022-09-02T11:17:23;1.10;;;1.10;;
16294;SDS011;8255;49.560;8.244;2022-09-02T11:19:54;1.08;;;1.08;;
16294;SDS011;8255;49.560;8.244;2022-09-02T11:22:23;0.95;;;0.95;;
16294;SDS011;8255;49.560;8.244;2022-09-02T11:24:54;1.50;;;1.40;;
16294;SDS011;8255;49.560;8.244;2022-09-02T11:27:27;1.20;;;1.08;;
16294;SDS011;8255;49.560;8.244;2022-09-02T11:29:59;1.52;;;1.02;;
16294;SDS011;8255;49.560;8.244;2022-09-02T11:32:28;1.95;;;1.23;;
16294;SDS011;8255;49.560;8.244;2022-09-02T11:34:57;1.30;;;1.20;;
16294;SDS011;8255;49.560;8.244;2022-09-02T11:37:28;2.85;;;1.10;;
16294;SDS011;8255;49.560;8.244;2022-09-02T11:39:59;1.10;;;1.10;;
16294;SDS011;8255;49.560;8.244;2022-09-02T11:42:38;1.35;;;1.20;;
16294;SDS011;8255;49.560;8.244;2022-09-02T11:45:14;1.10;;;1.10;;
16294;SDS011;8255;49.560;8.244;2022-09-02T11:48:02;1.95;;;1.10;;
16294;SDS011;8255;49.560;8.244;2022-09-02T11:50:38;1.15;;;1.15;;
16294;SDS011;8255;49.560;8.244;2022-09-02T11:53:15;1.05;;;1.02;;
16294;SDS011;8255;49.560;8.244;2022-09-02T11:55:46;1.60;;;1.20;;
16294;SDS011;8255;49.560;8.244;2022-09-02T11:58:28;1.10;;;1.10;;
16294;SDS011;8255;49.560;8.244;2022-09-02T12:01:00;1.20;;;1.20;;
16294;SDS011;8255;49.560;8.244;2022-09-02T12:03:29;1.13;;;1.13;;
16294;SDS011;8255;49.560;8.244;2022-09-02T12:06:04;1.95;;;1.50;;
16294;SDS011;8255;49.560;8.244;2022-09-02T12:11:40;1.38;;;1.27;;
16294;SDS011;8255;49.560;8.244;2022-09-02T12:14:07;0.93;;;0.93;;
16294;SDS011;8255;49.560;8.244;2022-09-02T12:16:39;1.05;;;1.05;;
16294;SDS011;8255;49.560;8.244;2022-09-02T12:19:16;1.20;;;1.10;;
16294;SDS011;8255;49.560;8.244;2022-09-02T12:24:26;1.10;;;1.10;;
16294;SDS011;8255;49.560;8.244;2022-09-02T12:27:04;1.40;;;1.30;;
16294;SDS011;8255;49.560;8.244;2022-09-02T12:29:31;1.20;;;1.20;;
16294;SDS011;8255;49.560;8.244;2022-09-02T12:31:58;1.02;;;1.02;;
16294;SDS011;8255;49.560;8.244;2022-09-02T12:37:14;1.10;;;1.10;;
16294;SDS011;8255;49.560;8.244;2022-09-02T12:39:57;1.15;;;1.13;;
16294;SDS011;8255;49.560;8.244;2022-09-02T12:42:30;1.42;;;1.20;;
16294;SDS011;8255;49.560;8.244;2022-09-02T12:45:02;1.20;;;1.10;;
16294;SDS011;8255;49.560;8.244;2022-09-02T12:47:32;1.38;;;1.27;;
16294;SDS011;8255;49.560;8.244;2022-09-02T12:50:01;1.10;;;1.10;;
16294;SDS011;8255;49.560;8.244;2022-09-02T12:52:42;1.48;;;1.17;;
16294;SDS011;8255;49.560;8.244;2022-09-02T12:55:09;1.20;;;1.20;;
16294;SDS011;8255;49.560;8.244;2022-09-02T12:57:40;1.30;;;1.20;;
16294;SDS011;8255;49.560;8.244;2022-09-02T13:00:07;1.38;;;1.33;;
16294;SDS011;8255;49.560;8.244;2022-09-02T13:02:38;1.38;;;1.27;;
16294;SDS011;8255;49.560;8.244;2022-09-02T13:05:11;1.10;;;1.10;;
16294;SDS011;8255;49.560;8.244;2022-09-02T13:10:31;1.15;;;1.15;;
16294;SDS011;8255;49.560;8.244;2022-09-02T13:15:52;1.10;;;1.10;;
16294;SDS011;8255;49.560;8.244;2022-09-02T13:18:39;1.23;;;1.10;;
16294;SDS011;8255;49.560;8.244;2022-09-02T13:21:20;1.30;;;1.27;;
16294;SDS011;8255;49.560;8.244;2022-09-02T13:24:09;1.05;;;1.05;;
16294;SDS011;8255;49.560;8.244;2022-09-02T13:26:49;1.45;;;1.10;;
16294;SDS011;8255;49.560;8.244;2022-09-02T13:32:21;1.10;;;1.10;;
16294;SDS011;8255;49.560;8.244;2022-09-02T13:34:48;1.20;;;1.15;;
16294;SDS011;8255;49.560;8.244;2022-09-02T13:37:25;1.40;;;1.30;;
16294;SDS011;8255;49.560;8.244;2022-09-02T13:39:52;1.50;;;1.30;;
16294;SDS011;8255;49.560;8.244;2022-09-02T13:42:18;1.10;;;1.10;;
16294;SDS011;8255;49.560;8.244;2022-09-02T13:44:47;1.13;;;1.00;;
16294;SDS011;8255;49.560;8.244;2022-09-02T13:47:15;1.33;;;1.33;;
16294;SDS011;8255;49.560;8.244;2022-09-02T13:49:44;1.15;;;1.15;;
16294;SDS011;8255;49.560;8.244;2022-09-02T13:52:11;1.13;;;1.13;;
16294;SDS011;8255;49.560;8.244;2022-09-02T13:54:38;1.00;;;1.00;;
16294;SDS011;8255;49.560;8.244;2022-09-02T13:57:09;1.00;;;1.00;;
16294;SDS011;8255;49.560;8.244;2022-09-02T13:59:37;1.10;;;1.10;;
16294;SDS011;8255;49.560;8.244;2022-09-02T14:02:17;1.20;;;1.20;;
16294;SDS011;8255;49.560;8.244;2022-09-02T14:04:46;1.83;;;0.95;;
16294;SDS011;8255;49.560;8.244;2022-09-02T14:07:14;0.93;;;0.93;;
16294;SDS011;8255;49.560;8.244;2022-09-02T14:09:40;1.58;;;1.20;;
16294;SDS011;8255;49.560;8.244;2022-09-02T14:12:09;1.00;;;1.00;;
16294;SDS011;8255;49.560;8.244;2022-09-02T14:14:35;1.08;;;1.08;;
16294;SDS011;8255;49.560;8.244;2022-09-02T14:17:18;2.20;;;1.10;;
16294;SDS011;8255;49.560;8.244;2022-09-02T14:19:47;1.10;;;1.10;;
16294;SDS011;8255;49.560;8.244;2022-09-02T14:22:22;1.33;;;1.23;;
16294;SDS011;8255;49.560;8.244;2022-09-02T14:24:49;3.42;;;1.15;;
16294;SDS011;8255;49.560;8.244;2022-09-02T14:27:16;1.10;;;1.10;;
16294;SDS011;8255;49.560;8.244;2022-09-02T14:29:43;1.17;;;1.10;;
16294;SDS011;8255;49.560;8.244;2022-09-02T14:32:11;0.80;;;0.80;;
16294;SDS011;8255;49.560;8.244;2022-09-02T14:34:38;1.23;;;1.15;;
16294;SDS011;8255;49.560;8.244;2022-09-02T14:37:18;0.90;;;0.90;;
16294;SDS011;8255;49.560;8.244;2022-09-02T14:39:51;2.33;;;1.25;;
16294;SDS011;8255;49.560;8.244;2022-09-02T14:42:18;1.00;;;1.00;;
16294;SDS011;8255;49.560;8.244;2022-09-02T14:44:45;1.27;;;1.17;;
16294;SDS011;8255;49.560;8.244;2022-09-02T14:47:12;1.35;;;1.25;;
16294;SDS011;8255;49.560;8.244;2022-09-02T14:49:44;1.20;;;1.20;;
16294;SDS011;8255;49.560;8.244;2022-09-02T14:52:14;1.35;;;1.15;;
16294;SDS011;8255;49.560;8.244;2022-09-02T14:54:43;1.35;;;1.10;;
16294;SDS011;8255;49.560;8.244;2022-09-02T14:57:19;2.33;;;1.20;;
16294;SDS011;8255;49.560;8.244;2022-09-02T14:59:45;1.00;;;1.00;;
16294;SDS011;8255;49.560;8.244;2022-09-02T15:02:19;0.93;;;0.93;;
16294;SDS011;8255;49.560;8.244;2022-09-02T15:04:46;1.20;;;1.20;;
16294;SDS011;8255;49.560;8.244;2022-09-02T15:07:13;1.00;;;1.00;;
16294;SDS011;8255;49.560;8.244;2022-09-02T15:09:39;1.58;;;1.20;;
16294;SDS011;8255;49.560;8.244;2022-09-02T15:12:09;1.10;;;1.10;;
16294;SDS011;8255;49.560;8.244;2022-09-02T15:14:36;1.30;;;1.20;;
16294;SDS011;8255;49.560;8.244;2022-09-02T15:17:03;1.20;;;1.10;;
16294;SDS011;8255;49.560;8.244;2022-09-02T15:19:31;1.10;;;1.10;;
16294;SDS011;8255;49.560;8.244;2022-09-02T15:21:58;1.30;;;1.13;;
16294;SDS011;8255;49.560;8.244;2022-09-02T15:24:24;1.20;;;1.20;;
16294;SDS011;8255;49.560;8.244;2022-09-02T15:26:51;1.05;;;1.00;;
16294;SDS011;8255;49.560;8.244;2022-09-02T15:29:19;1.20;;;1.10;;
16294;SDS011;8255;49.560;8.244;2022-09-02T15:31:45;1.10;;;1.10;;